DVK Airport (Stuart Powell Field) Information

FAA: DVK - ICAO: KDVK

DVK Airport Location

State Kentucky
County Boyle
City Danville
DVK Airport is 3 miles south of Danville, KY.
Latitude 37-34-39.2705N
Longitude 084-46-10.1922W
Elevation 1,022ft

KDVK Airport METARs

METAR KDVK 292255Z AUTO 00000KT 10SM CLR 03/M09 A3009 RMK AO2
Altimeter 30.09"
Temperature 3.0°C (37.4°F)
Wind 0° at 0KT
Clouds Skies are clear.
Visibility 10.0mi
Time observed: 2021-11-29T22:55:00Z

DVK Airport Details

Status Operational
Activation April 1941
Ownership Public
Usage Public
Chart CINCINNATI
ATC on-site No
Beacon schedule sunset-sunrise
Beacon color clear green

DVK Airport Contacts

Owner CITY OF DANVILLE & BOYLE COUNTY
Owner address CITY HALL, DANVILLE, KY 40422-9424
Owner phone 859-236-8917
Manager CLINTON-HICKMAN COUNTY
Manager address HICKMAN COUNTY COURTHOUSE, CLINTON, KY 42031
Manager phone N/A

DVK Airport (Stuart Powell Field) Radio Frequencies

DVK (Airport) Radio Frequencies

UNICOM 122.8
Common traffic advisory frequency (CTAF) 122.8